createdAt,value
2023-04-07T00:01:42.893Z,4.00
2023-04-07T00:04:12.213Z,4.90
2023-04-07T00:06:43.679Z,5.30
2023-04-07T00:09:16.058Z,4.60
2023-04-07T00:11:53.076Z,5.20
2023-04-07T00:14:21.440Z,4.90
2023-04-07T00:16:49.601Z,4.80
2023-04-07T00:19:19.012Z,5.10
2023-04-07T00:21:47.933Z,4.90
2023-04-07T00:24:31.526Z,5.10
2023-04-07T00:27:03.896Z,4.20
2023-04-07T00:29:32.128Z,3.50
2023-04-07T00:32:04.293Z,3.40
2023-04-07T00:34:32.625Z,2.50
2023-04-07T00:37:02.189Z,3.30
2023-04-07T00:39:31.638Z,2.80
2023-04-07T00:42:00.014Z,3.50
2023-04-07T00:44:29.064Z,3.70
2023-04-07T00:46:57.754Z,3.20
2023-04-07T00:49:28.648Z,3.10
2023-04-07T00:52:00.302Z,2.80
2023-04-07T00:54:32.107Z,3.00
2023-04-07T00:57:01.949Z,2.90
2023-04-07T00:59:31.647Z,2.80
2023-04-07T01:02:11.128Z,2.00
2023-04-07T01:04:51.147Z,2.00
2023-04-07T01:07:25.132Z,2.70
2023-04-07T01:10:06.095Z,2.70
2023-04-07T01:13:03.282Z,2.30
2023-04-07T01:15:32.382Z,2.40
2023-04-07T01:18:22.486Z,2.30
2023-04-07T01:20:55.262Z,2.50
2023-04-07T01:23:39.955Z,2.10
2023-04-07T01:26:14.698Z,1.80
2023-04-07T01:28:58.711Z,1.80
2023-04-07T01:31:27.990Z,1.80
2023-04-07T01:33:58.008Z,1.80
2023-04-07T01:36:28.659Z,2.00
2023-04-07T01:38:56.962Z,2.10
2023-04-07T01:41:28.915Z,2.00
2023-04-07T01:43:57.684Z,2.50
2023-04-07T01:46:26.404Z,2.40
2023-04-07T01:48:54.695Z,2.20
2023-04-07T01:51:24.723Z,2.20
2023-04-07T01:53:53.952Z,2.60
2023-04-07T01:56:22.364Z,2.30
2023-04-07T01:58:53.388Z,2.20
2023-04-07T02:01:23.910Z,2.30
2023-04-07T02:04:17.512Z,2.30
2023-04-07T02:06:50.057Z,2.00
2023-04-07T02:09:21.804Z,1.90
2023-04-07T02:11:52.348Z,2.20
2023-04-07T02:14:24.647Z,2.50
2023-04-07T02:17:25.771Z,2.30
2023-04-07T02:19:54.794Z,2.70
2023-04-07T02:22:23.097Z,2.60
2023-04-07T02:24:52.408Z,2.40
2023-04-07T02:29:54.650Z,2.30
2023-04-07T02:32:25.768Z,2.40
2023-04-07T02:34:54.536Z,2.40
2023-04-07T02:37:22.852Z,2.60
2023-04-07T02:39:52.016Z,2.70
2023-04-07T02:42:23.473Z,2.40
2023-04-07T02:44:52.184Z,2.50
2023-04-07T02:47:20.698Z,2.30
2023-04-07T02:49:51.076Z,2.60
2023-04-07T02:52:19.599Z,2.50
2023-04-07T02:54:48.185Z,2.20
2023-04-07T02:57:16.988Z,2.30
2023-04-07T02:59:45.676Z,2.50
2023-04-07T03:02:14.425Z,2.40
2023-04-07T03:04:44.416Z,2.20
2023-04-07T03:07:13.044Z,2.20
2023-04-07T03:09:45.270Z,2.20
2023-04-07T03:14:45.706Z,2.10
2023-04-07T03:17:18.980Z,1.80
2023-04-07T03:19:49.031Z,2.00
2023-04-07T03:22:17.864Z,2.30
2023-04-07T03:24:49.946Z,2.30
2023-04-07T03:27:20.494Z,2.10
2023-04-07T03:29:52.543Z,2.10
2023-04-07T03:32:21.878Z,1.80
2023-04-07T03:34:50.581Z,1.70
2023-04-07T03:37:21.142Z,2.00
2023-04-07T03:39:51.624Z,1.70
2023-04-07T03:42:28.686Z,2.20
2023-04-07T03:45:04.744Z,2.00
2023-04-07T03:47:34.296Z,2.00
2023-04-07T03:50:04.810Z,2.20
2023-04-07T03:52:36.515Z,2.00
2023-04-07T03:55:19.763Z,2.20
2023-04-07T03:57:48.361Z,2.10
2023-04-07T04:00:22.668Z,2.60
2023-04-07T04:03:04.139Z,2.40
2023-04-07T04:05:32.858Z,2.20
2023-04-07T04:08:02.186Z,2.40
2023-04-07T04:10:31.693Z,2.30
2023-04-07T04:13:02.072Z,2.30
2023-04-07T04:15:31.670Z,2.90
2023-04-07T04:18:00.667Z,2.70
2023-04-07T04:20:34.925Z,2.80
2023-04-07T04:23:30.190Z,2.80
2023-04-07T04:26:13.458Z,2.60
2023-04-07T04:28:46.130Z,2.50
2023-04-07T04:32:01.525Z,2.40
2023-04-07T04:34:37.482Z,2.40
2023-04-07T04:37:06.240Z,2.50
2023-04-07T04:39:35.060Z,2.50
2023-04-07T04:42:06.013Z,2.50
2023-04-07T04:44:37.393Z,2.80
2023-04-07T04:47:15.031Z,2.60
2023-04-07T04:49:47.216Z,2.30
2023-04-07T04:52:15.708Z,2.60
2023-04-07T04:54:46.469Z,2.60
2023-04-07T04:57:15.087Z,2.70
2023-04-07T04:59:50.268Z,2.90
2023-04-07T05:02:18.774Z,3.10
2023-04-07T05:04:47.786Z,3.10
2023-04-07T05:07:23.872Z,3.20
2023-04-07T05:09:57.252Z,2.60
2023-04-07T05:12:26.330Z,2.50
2023-04-07T05:15:01.073Z,3.00
2023-04-07T05:17:30.019Z,2.70
2023-04-07T05:20:00.248Z,2.90
2023-04-07T05:22:41.634Z,3.10
2023-04-07T05:25:16.664Z,3.20
2023-04-07T05:27:45.968Z,2.90
2023-04-07T05:30:22.625Z,3.10
2023-04-07T05:32:53.361Z,3.00
2023-04-07T05:35:35.379Z,3.10
2023-04-07T05:38:06.176Z,3.00
2023-04-07T05:40:37.385Z,3.10
2023-04-07T05:43:08.126Z,2.70
2023-04-07T05:45:37.792Z,3.10
2023-04-07T05:48:07.849Z,3.00
2023-04-07T05:50:41.873Z,2.70
2023-04-07T05:53:13.294Z,3.10
2023-04-07T05:55:44.040Z,2.70
2023-04-07T05:58:16.932Z,2.70
2023-04-07T06:00:50.485Z,2.30
2023-04-07T06:03:20.203Z,2.60
2023-04-07T06:05:58.870Z,3.00
2023-04-07T06:08:31.185Z,2.60
2023-04-07T06:11:02.939Z,2.40
2023-04-07T06:13:31.712Z,2.50
2023-04-07T06:16:00.819Z,2.50
2023-04-07T06:18:32.834Z,2.50
2023-04-07T06:21:01.571Z,2.30
2023-04-07T06:23:36.162Z,2.50
2023-04-07T06:26:12.356Z,2.50
2023-04-07T06:28:41.123Z,2.40
2023-04-07T06:31:09.643Z,2.50
2023-04-07T06:33:39.824Z,2.40
2023-04-07T06:36:08.634Z,2.20
2023-04-07T06:38:37.635Z,2.60
2023-04-07T06:41:11.997Z,2.50
2023-04-07T06:43:41.311Z,2.60
2023-04-07T06:46:10.397Z,2.50
2023-04-07T06:48:38.824Z,2.80
2023-04-07T06:51:07.872Z,2.50
2023-04-07T06:53:36.875Z,2.80
2023-04-07T06:56:09.684Z,2.50
2023-04-07T06:58:39.085Z,2.50
2023-04-07T07:01:09.584Z,2.20
2023-04-07T07:03:40.229Z,2.40
2023-04-07T07:06:08.796Z,2.40
2023-04-07T07:08:37.208Z,2.50
2023-04-07T07:11:05.744Z,2.70
2023-04-07T07:13:36.624Z,2.80
2023-04-07T07:16:05.698Z,2.70
2023-04-07T07:18:37.831Z,3.20
2023-04-07T07:21:07.220Z,3.00
2023-04-07T07:23:36.845Z,3.00
2023-04-07T07:26:05.716Z,2.60
2023-04-07T07:28:34.265Z,2.90
2023-04-07T07:31:13.261Z,2.50
2023-04-07T07:33:44.395Z,2.40
2023-04-07T07:36:12.926Z,2.90
2023-04-07T07:38:41.758Z,2.70
2023-04-07T07:41:09.985Z,2.40
2023-04-07T07:43:40.078Z,2.60
2023-04-07T07:46:08.789Z,2.80
2023-04-07T07:48:41.828Z,2.80
2023-04-07T07:51:11.085Z,3.00
2023-04-07T07:53:39.542Z,2.90
2023-04-07T07:56:08.540Z,2.90
2023-04-07T07:58:37.804Z,2.90
2023-04-07T08:01:09.016Z,2.90
2023-04-07T08:03:40.304Z,3.20
2023-04-07T08:06:09.833Z,3.00
2023-04-07T08:08:39.318Z,2.60
2023-04-07T08:11:07.895Z,2.90
2023-04-07T08:13:39.082Z,2.20
2023-04-07T08:16:07.859Z,3.00
2023-04-07T08:18:36.522Z,3.10
2023-04-07T08:21:05.999Z,3.20
2023-04-07T08:23:34.379Z,2.80
2023-04-07T08:26:02.657Z,3.00
2023-04-07T08:28:36.934Z,2.80
2023-04-07T08:31:05.953Z,3.20
2023-04-07T08:33:34.304Z,2.90
2023-04-07T08:36:06.092Z,2.80
2023-04-07T08:38:34.934Z,2.70
2023-04-07T08:41:05.852Z,2.60
2023-04-07T08:43:36.100Z,2.90
2023-04-07T08:46:04.586Z,2.60
2023-04-07T08:48:34.387Z,2.50
2023-04-07T08:51:06.778Z,2.70
2023-04-07T08:53:44.648Z,2.90
2023-04-07T08:56:13.267Z,2.50
2023-04-07T08:58:41.763Z,2.90
2023-04-07T09:01:10.258Z,2.40
2023-04-07T09:03:39.685Z,3.00
2023-04-07T09:06:08.479Z,3.50
2023-04-07T09:08:39.171Z,2.90
2023-04-07T09:11:07.607Z,2.60
2023-04-07T09:13:38.437Z,3.00
2023-04-07T09:16:07.240Z,2.80
2023-04-07T09:18:55.519Z,2.80
2023-04-07T09:21:23.763Z,2.80
2023-04-07T09:23:53.031Z,2.60
2023-04-07T09:26:24.645Z,2.70
2023-04-07T09:29:01.210Z,2.80
2023-04-07T09:31:55.275Z,2.50
2023-04-07T09:34:35.240Z,2.60
2023-04-07T09:37:04.065Z,2.80
2023-04-07T09:39:33.296Z,2.90
2023-04-07T09:42:06.989Z,3.20
2023-04-07T09:44:41.343Z,2.60
2023-04-07T09:47:10.458Z,2.90
2023-04-07T09:49:53.974Z,2.70
2023-04-07T09:52:26.689Z,2.70
2023-04-07T09:54:56.962Z,2.80
2023-04-07T09:57:26.432Z,2.60
2023-04-07T10:02:28.142Z,2.20
2023-04-07T10:04:56.414Z,2.70
2023-04-07T10:07:24.733Z,2.60
2023-04-07T10:10:10.594Z,2.70
2023-04-07T10:12:41.739Z,2.40
2023-04-07T10:15:16.119Z,2.20
2023-04-07T10:17:49.694Z,2.50
2023-04-07T10:20:19.066Z,2.50
2023-04-07T10:22:48.917Z,2.10
2023-04-07T10:25:19.767Z,2.40
2023-04-07T10:27:57.408Z,2.20
2023-04-07T10:30:29.563Z,2.20
2023-04-07T10:33:18.822Z,2.30
2023-04-07T10:36:30.132Z,2.70
2023-04-07T10:39:07.372Z,2.20
2023-04-07T10:41:41.591Z,2.60
2023-04-07T10:44:45.185Z,2.10
2023-04-07T10:47:14.484Z,2.10
2023-04-07T10:50:13.116Z,2.60
2023-04-07T10:52:42.714Z,2.20
2023-04-07T10:55:33.055Z,2.20
2023-04-07T10:58:31.270Z,2.60
2023-04-07T11:01:09.641Z,2.30
2023-04-07T11:03:39.432Z,2.10
2023-04-07T11:06:12.800Z,2.50
2023-04-07T11:08:45.176Z,2.30
2023-04-07T11:11:41.999Z,2.10
2023-04-07T11:14:20.888Z,1.80
2023-04-07T11:17:03.940Z,1.90
2023-04-07T11:19:53.295Z,2.10
2023-04-07T11:23:00.204Z,1.80
2023-04-07T11:25:29.039Z,1.90
2023-04-07T11:27:58.125Z,2.30
2023-04-07T11:30:33.226Z,2.20
2023-04-07T11:33:02.597Z,2.20
2023-04-07T11:35:31.720Z,1.70
2023-04-07T11:38:04.596Z,2.20
2023-04-07T11:40:34.883Z,1.80
2023-04-07T11:43:15.309Z,2.10
2023-04-07T11:45:43.988Z,2.00
2023-04-07T11:48:31.543Z,1.90
2023-04-07T11:51:00.507Z,2.30
2023-04-07T11:53:34.274Z,2.10
2023-04-07T11:56:10.446Z,1.90
2023-04-07T11:58:39.112Z,2.20
2023-04-07T12:01:09.330Z,2.20
2023-04-07T12:03:38.688Z,1.80
2023-04-07T12:06:08.661Z,2.00
2023-04-07T12:08:41.361Z,1.80
2023-04-07T12:11:10.408Z,2.20
2023-04-07T12:13:42.882Z,2.00
2023-04-07T12:16:11.893Z,2.10
2023-04-07T12:18:40.232Z,2.00
2023-04-07T12:21:11.709Z,2.30
2023-04-07T12:23:41.275Z,2.40
2023-04-07T12:26:12.071Z,2.30
2023-04-07T12:28:43.591Z,2.30
2023-04-07T12:31:12.709Z,2.30
2023-04-07T12:33:41.263Z,2.50
2023-04-07T12:36:09.745Z,2.30
2023-04-07T12:38:38.188Z,2.20
2023-04-07T12:41:07.066Z,2.00
2023-04-07T12:43:37.352Z,2.10
2023-04-07T12:46:06.296Z,2.10
2023-04-07T12:48:35.171Z,2.30
2023-04-07T12:51:03.765Z,2.20
2023-04-07T12:53:33.631Z,2.30
2023-04-07T12:56:02.089Z,2.00
2023-04-07T12:58:35.569Z,2.80
2023-04-07T13:01:04.346Z,2.10
2023-04-07T13:03:43.744Z,2.20
2023-04-07T13:06:19.362Z,2.50
2023-04-07T13:08:49.548Z,2.20
2023-04-07T13:11:17.712Z,2.20
2023-04-07T13:13:49.868Z,1.90
2023-04-07T13:16:18.678Z,2.30
2023-04-07T13:18:47.524Z,2.40
2023-04-07T13:23:57.857Z,2.40
2023-04-07T13:26:27.403Z,2.30
2023-04-07T13:28:55.900Z,2.40
2023-04-07T13:31:27.963Z,2.80
2023-04-07T13:33:57.034Z,2.60
2023-04-07T13:49:33.255Z,2.50
2023-04-07T13:52:03.225Z,2.30
2023-04-07T13:54:43.266Z,2.30
2023-04-07T13:57:11.723Z,2.50
2023-04-07T13:59:38.550Z,2.30
2023-04-07T14:02:05.492Z,2.40
2023-04-07T14:04:33.667Z,2.20
2023-04-07T14:07:10.677Z,2.90
2023-04-07T14:09:39.979Z,2.50
2023-04-07T14:12:06.926Z,2.50
2023-04-07T14:14:39.237Z,2.20
2023-04-07T14:17:06.662Z,2.40
2023-04-07T14:19:36.109Z,2.70
2023-04-07T14:22:05.417Z,3.10
2023-04-07T14:24:32.476Z,2.80
2023-04-07T14:27:01.304Z,2.80
2023-04-07T14:29:28.295Z,3.10
2023-04-07T14:31:57.077Z,2.50
2023-04-07T14:34:24.200Z,2.40
2023-04-07T14:36:55.908Z,2.50
2023-04-07T14:39:23.618Z,2.50
2023-04-07T14:41:51.866Z,2.40
2023-04-07T14:44:19.418Z,2.60
2023-04-07T14:46:46.474Z,2.60
2023-04-07T14:49:14.306Z,2.70
2023-04-07T14:51:41.333Z,2.60
2023-04-07T14:54:08.512Z,2.60
2023-04-07T14:56:35.410Z,2.90
2023-04-07T14:59:04.570Z,3.00
2023-04-07T15:01:31.834Z,2.50
2023-04-07T15:04:00.388Z,2.80
2023-04-07T15:06:27.599Z,2.90
2023-04-07T15:08:54.722Z,3.20
2023-04-07T15:11:21.872Z,3.30
2023-04-07T15:13:49.431Z,3.30
2023-04-07T15:16:16.634Z,2.80
2023-04-07T15:18:46.725Z,3.30
2023-04-07T15:21:14.403Z,3.00
2023-04-07T15:23:41.420Z,2.80
2023-04-07T15:26:08.567Z,3.20
2023-04-07T15:28:41.806Z,2.60
2023-04-07T15:31:09.655Z,2.60
2023-04-07T15:33:39.964Z,2.70
2023-04-07T15:36:08.045Z,3.30
2023-04-07T15:38:35.164Z,3.00
2023-04-07T15:41:02.115Z,3.10
2023-04-07T15:43:29.185Z,3.70
2023-04-07T15:45:56.082Z,3.50
2023-04-07T15:48:23.677Z,3.60
2023-04-07T15:50:54.562Z,3.10
2023-04-07T15:53:25.682Z,3.30
2023-04-07T15:55:52.536Z,3.30
2023-04-07T15:58:20.160Z,2.80
2023-04-07T16:00:47.173Z,2.40
2023-04-07T16:03:16.626Z,2.70
2023-04-07T16:05:47.872Z,2.20
2023-04-07T16:08:15.081Z,2.60
2023-04-07T16:10:44.263Z,3.40
2023-04-07T16:13:15.037Z,3.00
2023-04-07T16:15:58.360Z,2.30
2023-04-07T16:18:27.221Z,2.40
2023-04-07T16:20:54.135Z,2.50
2023-04-07T16:23:28.003Z,2.30
2023-04-07T16:25:56.141Z,3.00
2023-04-07T16:28:22.982Z,2.80
2023-04-07T16:30:49.977Z,2.90
2023-04-07T16:33:25.859Z,3.10
2023-04-07T16:35:53.032Z,3.70
2023-04-07T16:38:26.848Z,3.30
2023-04-07T16:41:03.392Z,4.70
2023-04-07T16:43:36.309Z,7.00
2023-04-07T16:46:05.461Z,5.80
2023-04-07T16:48:32.544Z,4.60
2023-04-07T16:51:00.787Z,4.20
2023-04-07T16:53:27.981Z,4.00
2023-04-07T16:55:55.824Z,4.40
2023-04-07T16:58:23.838Z,4.60
2023-04-07T17:00:50.792Z,5.30
2023-04-07T17:03:23.267Z,10.40
2023-04-07T17:05:50.610Z,9.30
2023-04-07T17:08:18.036Z,10.40
2023-04-07T17:10:45.570Z,10.70
2023-04-07T17:13:12.559Z,10.00
2023-04-07T17:15:39.532Z,10.50
2023-04-07T17:18:08.773Z,12.00
2023-04-07T17:20:36.480Z,17.80
2023-04-07T17:23:05.280Z,23.50
2023-04-07T17:25:33.876Z,20.10
2023-04-07T17:28:00.802Z,19.30
2023-04-07T17:30:29.386Z,13.60
2023-04-07T17:32:56.585Z,13.60
2023-04-07T17:35:24.708Z,19.10
2023-04-07T17:37:56.749Z,19.60
2023-04-07T17:40:23.570Z,19.10
2023-04-07T17:42:50.335Z,17.70
2023-04-07T17:45:17.409Z,12.90
2023-04-07T17:47:45.839Z,12.80
2023-04-07T17:50:15.906Z,12.90
2023-04-07T17:52:44.783Z,12.20
2023-04-07T17:55:12.078Z,11.10
2023-04-07T17:57:41.106Z,10.20
2023-04-07T18:00:08.605Z,9.40
2023-04-07T18:02:44.290Z,8.70
2023-04-07T18:05:12.030Z,8.20
2023-04-07T18:07:39.199Z,9.10
2023-04-07T18:10:07.697Z,8.80
2023-04-07T18:12:35.023Z,9.90
2023-04-07T18:15:02.150Z,8.30
2023-04-07T18:17:30.071Z,8.20
2023-04-07T18:19:57.810Z,7.60
2023-04-07T18:22:26.291Z,7.20
2023-04-07T18:24:53.346Z,7.90
2023-04-07T18:27:23.628Z,8.50
2023-04-07T18:29:51.942Z,9.80
2023-04-07T18:32:18.862Z,11.50
2023-04-07T18:34:47.349Z,20.10
2023-04-07T18:37:16.562Z,20.80
2023-04-07T18:39:44.838Z,18.10
2023-04-07T18:42:12.636Z,18.50
2023-04-07T18:44:39.918Z,14.80
2023-04-07T18:47:08.070Z,16.50
2023-04-07T18:49:34.947Z,17.20
2023-04-07T18:52:01.829Z,13.30
2023-04-07T18:54:34.874Z,11.60
2023-04-07T18:57:02.378Z,11.30
2023-04-07T18:59:29.945Z,11.10
2023-04-07T19:02:00.739Z,11.10
2023-04-07T19:04:28.067Z,11.20
2023-04-07T19:06:57.019Z,10.80
2023-04-07T19:09:24.067Z,12.90
2023-04-07T19:11:52.213Z,11.30
2023-04-07T19:14:20.171Z,9.80
2023-04-07T19:16:48.187Z,9.50
2023-04-07T19:19:16.860Z,9.80
2023-04-07T19:21:49.859Z,9.40
2023-04-07T19:24:17.263Z,9.70
2023-04-07T19:27:04.677Z,8.90
2023-04-07T19:29:54.009Z,9.20
2023-04-07T19:32:37.304Z,9.60
2023-04-07T19:35:06.792Z,9.70
2023-04-07T19:37:34.958Z,12.00
2023-04-07T19:40:05.472Z,11.30
2023-04-07T19:42:35.197Z,11.70
2023-04-07T19:45:06.722Z,9.10
2023-04-07T19:47:38.784Z,7.20
2023-04-07T19:50:07.321Z,7.80
2023-04-07T19:52:34.267Z,7.50
2023-04-07T19:55:03.324Z,7.20
2023-04-07T19:57:33.658Z,7.40
2023-04-07T20:00:18.385Z,7.70
2023-04-07T20:03:08.826Z,7.30
2023-04-07T20:05:38.029Z,6.80
2023-04-07T20:08:08.391Z,7.20
2023-04-07T20:10:36.769Z,7.90
2023-04-07T20:13:12.344Z,7.90
2023-04-07T20:15:43.753Z,7.90
2023-04-07T20:18:23.825Z,6.70
2023-04-07T20:21:09.703Z,8.20
2023-04-07T20:24:10.970Z,8.60
2023-04-07T20:26:54.293Z,8.00
2023-04-07T20:29:54.432Z,8.90
2023-04-07T20:32:40.094Z,7.70
2023-04-07T20:35:09.275Z,6.60
2023-04-07T20:37:36.157Z,6.80
2023-04-07T20:40:06.527Z,6.80
2023-04-07T20:42:34.074Z,7.30
2023-04-07T20:45:03.344Z,6.60
2023-04-07T20:47:30.816Z,7.20
2023-04-07T20:49:58.331Z,7.00
2023-04-07T20:52:28.782Z,6.60
2023-04-07T20:54:56.816Z,7.40
2023-04-07T20:57:23.719Z,7.90
2023-04-07T20:59:51.703Z,7.70
2023-04-07T21:02:18.618Z,9.00
2023-04-07T21:04:45.690Z,8.60
2023-04-07T21:07:12.701Z,9.80
2023-04-07T21:09:39.597Z,10.20
2023-04-07T21:12:06.810Z,10.80
2023-04-07T21:14:39.650Z,10.50
2023-04-07T21:17:06.752Z,9.90
2023-04-07T21:19:33.670Z,11.80
2023-04-07T21:22:07.187Z,12.30
2023-04-07T21:24:35.881Z,12.20
2023-04-07T21:27:03.860Z,12.30
2023-04-07T21:29:33.769Z,11.50
2023-04-07T21:32:01.339Z,12.00
2023-04-07T21:34:30.103Z,13.00
2023-04-07T21:36:57.867Z,12.30
2023-04-07T21:39:27.553Z,12.00
2023-04-07T21:41:56.876Z,12.20
2023-04-07T21:44:25.814Z,12.40
2023-04-07T21:46:53.163Z,12.00
2023-04-07T21:49:22.956Z,11.40
2023-04-07T21:51:50.074Z,10.90
2023-04-07T21:54:18.214Z,11.10
2023-04-07T21:56:48.398Z,10.80
2023-04-07T21:59:16.886Z,11.70
2023-04-07T22:01:46.341Z,11.80
2023-04-07T22:04:13.372Z,13.80
2023-04-07T22:06:42.934Z,16.10
2023-04-07T22:09:10.581Z,19.10
2023-04-07T22:11:37.818Z,17.70
2023-04-07T22:14:05.480Z,19.20
2023-04-07T22:16:32.522Z,16.40
2023-04-07T22:19:00.744Z,15.10
2023-04-07T22:21:27.891Z,14.80
2023-04-07T22:23:54.869Z,13.90
2023-04-07T22:26:22.264Z,14.00
2023-04-07T22:28:50.034Z,14.40
2023-04-07T22:31:17.096Z,13.80
2023-04-07T22:33:45.404Z,14.00
2023-04-07T22:36:12.399Z,13.40
2023-04-07T22:38:43.337Z,13.60
2023-04-07T22:41:10.392Z,12.50
2023-04-07T22:43:37.238Z,13.10
2023-04-07T22:46:04.171Z,12.60
2023-04-07T22:48:31.074Z,12.40
2023-04-07T22:51:00.055Z,11.70
2023-04-07T22:53:27.952Z,11.10
2023-04-07T22:55:56.137Z,10.60
2023-04-07T22:58:23.040Z,10.60
2023-04-07T23:00:50.056Z,11.00
2023-04-07T23:03:19.412Z,11.20
2023-04-07T23:05:47.636Z,10.60
2023-04-07T23:08:14.470Z,12.80
2023-04-07T23:10:42.787Z,13.40
2023-04-07T23:13:10.289Z,12.50
2023-04-07T23:15:37.182Z,12.40
2023-04-07T23:18:08.082Z,14.00
2023-04-07T23:20:35.524Z,14.30
2023-04-07T23:23:03.053Z,13.60
2023-04-07T23:25:30.253Z,12.90
2023-04-07T23:27:57.310Z,12.90
2023-04-07T23:30:24.120Z,13.20
2023-04-07T23:32:51.562Z,12.50
2023-04-07T23:35:18.359Z,13.20
2023-04-07T23:37:46.354Z,12.70
2023-04-07T23:40:13.580Z,10.90
2023-04-07T23:42:42.617Z,11.60
2023-04-07T23:45:10.688Z,10.80
2023-04-07T23:47:38.007Z,11.60
2023-04-07T23:50:07.211Z,11.40
2023-04-07T23:52:34.225Z,11.90
2023-04-07T23:55:03.780Z,12.90
2023-04-07T23:57:30.907Z,13.00
2023-04-07T23:59:59.436Z,12.50
